N135GD 07FA-KLAL
Flight info
| Callsign | N135GD |
|---|---|
| Flight time | 1h 48m |
| Altitude | 1000 |
| Route | |
| Aircraft | A139/L-SGY/LB2 |
Departure
| Time | 2026-04-21 21:27 |
|---|---|
| Airport | Ocean Reef Club Airport (07FA) |
Arrival
| Time | 2026-04-21 23:15 |
|---|---|
| Airport | Lakeland Linder International Airport (KLAL) |
| Time | Latitude | Longitude | Altitude | Speed | Heading |
|---|---|---|---|---|---|
| 2026-04-21 21:22 | 25.32182 | -80.27756 | 26 ft | 0 kts | 318° |
| 2026-04-21 21:25 | 25.32183 | -80.27756 | 26 ft | 2 kts | 342° |
| 2026-04-21 21:26 | 25.32186 | -80.27754 | 26 ft | 0 kts | 36° |
| 2026-04-21 21:26 | 25.32192 | -80.27753 | 27 ft | 1 kts | 41° |
| 2026-04-21 21:26 | 25.32206 | -80.27775 | 140 ft | 19 kts | 329° |
| 2026-04-21 21:27 | 25.32135 | -80.28080 | 353 ft | 72 kts | 257° |
| 2026-04-21 21:27 | 25.31756 | -80.28678 | 551 ft | 121 kts | 244° |
| 2026-04-21 21:27 | 25.31230 | -80.29605 | 756 ft | 161 kts | 243° |
| 2026-04-21 21:27 | 25.30725 | -80.30781 | 964 ft | 174 kts | 256° |
| 2026-04-21 21:28 | 25.30596 | -80.32066 | 1052 ft | 165 kts | 282° |
| 2026-04-21 21:28 | 25.30812 | -80.33282 | 1029 ft | 158 kts | 293° |
| 2026-04-21 21:28 | 25.31457 | -80.35628 | 980 ft | 162 kts | 293° |
| 2026-04-21 21:29 | 25.31783 | -80.36838 | 1040 ft | 161 kts | 296° |
| 2026-04-21 21:29 | 25.32111 | -80.37954 | 1076 ft | 143 kts | 303° |
| 2026-04-21 21:29 | 25.32558 | -80.38892 | 981 ft | 135 kts | 307° |
| 2026-04-21 21:29 | 25.33009 | -80.39796 | 946 ft | 135 kts | 307° |
| 2026-04-21 21:30 | 25.33447 | -80.40713 | 971 ft | 136 kts | 307° |
| 2026-04-21 21:30 | 25.33884 | -80.41629 | 1008 ft | 134 kts | 308° |
| 2026-04-21 21:30 | 25.34318 | -80.42540 | 1015 ft | 134 kts | 308° |
| 2026-04-21 21:30 | 25.34697 | -80.43504 | 1008 ft | 136 kts | 301° |
| 2026-04-21 21:31 | 25.35059 | -80.44489 | 1017 ft | 137 kts | 301° |
| 2026-04-21 21:31 | 25.35423 | -80.45465 | 1031 ft | 136 kts | 301° |
| 2026-04-21 21:31 | 25.35784 | -80.46431 | 1010 ft | 138 kts | 301° |
| 2026-04-21 21:31 | 25.36146 | -80.47411 | 1005 ft | 137 kts | 300° |
| 2026-04-21 21:32 | 25.36523 | -80.48372 | 1016 ft | 136 kts | 301° |
| 2026-04-21 21:32 | 25.36970 | -80.49273 | 999 ft | 129 kts | 322° |
| 2026-04-21 21:32 | 25.37595 | -80.49972 | 1009 ft | 123 kts | 334° |
| 2026-04-21 21:32 | 25.38334 | -80.50385 | 1009 ft | 116 kts | 350° |
| 2026-04-21 21:33 | 25.39099 | -80.50641 | 1016 ft | 115 kts | 353° |
| 2026-04-21 21:33 | 25.39877 | -80.50795 | 1023 ft | 113 kts | 1° |
| 2026-04-21 21:33 | 25.40645 | -80.50929 | 1036 ft | 112 kts | 1° |
| 2026-04-21 21:33 | 25.41429 | -80.51056 | 1024 ft | 115 kts | 1° |
| 2026-04-21 21:34 | 25.42214 | -80.51192 | 1027 ft | 115 kts | 1° |
| 2026-04-21 21:34 | 25.43014 | -80.51322 | 1041 ft | 114 kts | 2° |
| 2026-04-21 21:34 | 25.43798 | -80.51448 | 1027 ft | 115 kts | 3° |
| 2026-04-21 21:34 | 25.44589 | -80.51581 | 1021 ft | 115 kts | 3° |
| 2026-04-21 21:35 | 25.45375 | -80.51705 | 1031 ft | 114 kts | 3° |
| 2026-04-21 21:35 | 25.46163 | -80.51831 | 1019 ft | 115 kts | 3° |
| 2026-04-21 21:35 | 25.46947 | -80.51962 | 1047 ft | 113 kts | 2° |
| 2026-04-21 21:35 | 25.47729 | -80.52088 | 1041 ft | 112 kts | 2° |
| 2026-04-21 21:36 | 25.48517 | -80.52212 | 1026 ft | 114 kts | 2° |
| 2026-04-21 21:36 | 25.49308 | -80.52336 | 1026 ft | 115 kts | 1° |
| 2026-04-21 21:36 | 25.50093 | -80.52468 | 1030 ft | 114 kts | 2° |
| 2026-04-21 21:36 | 25.50884 | -80.52593 | 1028 ft | 115 kts | 2° |
| 2026-04-21 21:37 | 25.51670 | -80.52726 | 1029 ft | 115 kts | 2° |
| 2026-04-21 21:37 | 25.52468 | -80.52854 | 1041 ft | 114 kts | 2° |
| 2026-04-21 21:37 | 25.53255 | -80.52977 | 1030 ft | 115 kts | 2° |
| 2026-04-21 21:37 | 25.54055 | -80.53108 | 1040 ft | 114 kts | 1° |
| 2026-04-21 21:38 | 25.54840 | -80.53237 | 1031 ft | 115 kts | 2° |
| 2026-04-21 21:38 | 25.55640 | -80.53364 | 1037 ft | 115 kts | 2° |
| 2026-04-21 21:38 | 25.56432 | -80.53489 | 1028 ft | 115 kts | 2° |
| 2026-04-21 21:38 | 25.57213 | -80.53620 | 1016 ft | 114 kts | 3° |
| 2026-04-21 21:39 | 25.58010 | -80.53739 | 999 ft | 117 kts | 1° |
| 2026-04-21 21:39 | 25.58803 | -80.53877 | 1022 ft | 115 kts | 2° |
| 2026-04-21 21:39 | 25.59602 | -80.54004 | 1008 ft | 117 kts | 2° |
| 2026-04-21 21:39 | 25.60412 | -80.54133 | 1022 ft | 117 kts | 2° |
| 2026-04-21 21:40 | 25.61212 | -80.54266 | 1022 ft | 117 kts | 2° |
| 2026-04-21 21:40 | 25.62014 | -80.54394 | 1022 ft | 117 kts | 2° |
| 2026-04-21 21:40 | 25.62817 | -80.54529 | 1028 ft | 116 kts | 2° |
| 2026-04-21 21:40 | 25.63612 | -80.54656 | 1030 ft | 116 kts | 2° |
| 2026-04-21 21:41 | 25.64424 | -80.54787 | 1019 ft | 117 kts | 1° |
| 2026-04-21 21:41 | 25.65240 | -80.54914 | 1027 ft | 117 kts | 1° |
| 2026-04-21 21:41 | 25.66050 | -80.55050 | 1050 ft | 118 kts | 5° |
| 2026-04-21 21:41 | 25.66861 | -80.55186 | 1224 ft | 119 kts | 5° |
| 2026-04-21 21:42 | 25.67646 | -80.55592 | 1462 ft | 127 kts | 342° |
| 2026-04-21 21:42 | 25.68361 | -80.56168 | 1704 ft | 127 kts | 340° |
| 2026-04-21 21:42 | 25.69062 | -80.56757 | 1931 ft | 127 kts | 340° |
| 2026-04-21 21:42 | 25.69784 | -80.57303 | 2072 ft | 125 kts | 338° |
| 2026-04-21 21:43 | 25.70519 | -80.57826 | 2069 ft | 125 kts | 339° |
| 2026-04-21 21:43 | 25.71249 | -80.58349 | 2040 ft | 126 kts | 338° |
| 2026-04-21 21:43 | 25.71988 | -80.58866 | 2039 ft | 126 kts | 339° |
| 2026-04-21 21:43 | 25.72724 | -80.59385 | 2025 ft | 126 kts | 339° |
| 2026-04-21 21:44 | 25.73462 | -80.59912 | 2013 ft | 127 kts | 339° |
| 2026-04-21 21:44 | 25.74204 | -80.60441 | 2014 ft | 127 kts | 339° |
| 2026-04-21 21:44 | 25.74947 | -80.60970 | 2023 ft | 127 kts | 339° |
| 2026-04-21 21:44 | 25.75690 | -80.61494 | 2037 ft | 125 kts | 339° |
| 2026-04-21 21:45 | 25.76433 | -80.62005 | 2028 ft | 126 kts | 339° |
| 2026-04-21 21:45 | 25.77178 | -80.62519 | 2027 ft | 126 kts | 339° |
| 2026-04-21 21:45 | 25.77921 | -80.63034 | 2030 ft | 126 kts | 339° |
| 2026-04-21 21:45 | 25.78660 | -80.63550 | 2030 ft | 125 kts | 339° |
| 2026-04-21 21:46 | 25.79400 | -80.64067 | 2014 ft | 126 kts | 339° |
| 2026-04-21 21:46 | 25.80147 | -80.64580 | 2032 ft | 126 kts | 339° |
| 2026-04-21 21:46 | 25.80898 | -80.65105 | 2035 ft | 126 kts | 339° |
| 2026-04-21 21:46 | 25.81642 | -80.65618 | 2033 ft | 126 kts | 339° |
| 2026-04-21 21:47 | 25.82391 | -80.66126 | 2037 ft | 126 kts | 339° |
| 2026-04-21 21:47 | 25.83140 | -80.66638 | 2037 ft | 126 kts | 339° |
| 2026-04-21 21:47 | 25.83887 | -80.67155 | 2032 ft | 126 kts | 340° |
| 2026-04-21 21:47 | 25.84638 | -80.67672 | 2023 ft | 127 kts | 339° |
| 2026-04-21 21:48 | 25.85390 | -80.68186 | 2028 ft | 126 kts | 339° |
| 2026-04-21 21:48 | 25.86147 | -80.68696 | 2026 ft | 125 kts | 339° |
| 2026-04-21 21:48 | 25.86885 | -80.69207 | 2014 ft | 125 kts | 339° |
| 2026-04-21 21:48 | 25.87629 | -80.69714 | 1983 ft | 125 kts | 340° |
| 2026-04-21 21:49 | 25.88372 | -80.70215 | 1982 ft | 125 kts | 339° |
| 2026-04-21 21:49 | 25.89115 | -80.70725 | 1973 ft | 126 kts | 339° |
| 2026-04-21 21:49 | 25.89857 | -80.71237 | 1974 ft | 125 kts | 339° |
| 2026-04-21 21:49 | 25.90595 | -80.71744 | 1969 ft | 125 kts | 338° |
| 2026-04-21 21:50 | 25.91342 | -80.72252 | 1947 ft | 126 kts | 339° |
| 2026-04-21 21:50 | 25.92088 | -80.72758 | 1948 ft | 126 kts | 339° |
| 2026-04-21 21:50 | 25.92832 | -80.73262 | 1946 ft | 125 kts | 339° |
| 2026-04-21 21:50 | 25.93578 | -80.73763 | 1942 ft | 125 kts | 339° |
| 2026-04-21 21:51 | 25.94323 | -80.74261 | 1946 ft | 125 kts | 339° |
| 2026-04-21 21:51 | 25.95069 | -80.74758 | 1938 ft | 125 kts | 338° |
| 2026-04-21 21:51 | 25.95814 | -80.75252 | 1937 ft | 125 kts | 339° |
| 2026-04-21 21:51 | 25.96573 | -80.75759 | 1944 ft | 125 kts | 339° |
| 2026-04-21 21:52 | 25.97319 | -80.76259 | 1943 ft | 126 kts | 340° |
| 2026-04-21 21:52 | 25.98065 | -80.76765 | 1948 ft | 126 kts | 339° |
| 2026-04-21 21:52 | 25.98812 | -80.77273 | 1957 ft | 124 kts | 341° |
| 2026-04-21 21:52 | 25.99586 | -80.77679 | 1946 ft | 123 kts | 346° |
| 2026-04-21 21:53 | 26.00379 | -80.77926 | 1940 ft | 115 kts | 6° |
| 2026-04-21 21:53 | 26.01180 | -80.77975 | 1946 ft | 115 kts | 6° |
| 2026-04-21 21:53 | 26.01979 | -80.78023 | 1954 ft | 113 kts | 7° |
| 2026-04-21 21:53 | 26.02772 | -80.78067 | 1940 ft | 114 kts | 7° |
| 2026-04-21 21:54 | 26.03565 | -80.78106 | 1930 ft | 115 kts | 7° |
| 2026-04-21 21:54 | 26.04362 | -80.78149 | 1930 ft | 115 kts | 7° |
| 2026-04-21 21:54 | 26.05160 | -80.78188 | 1938 ft | 114 kts | 8° |
| 2026-04-21 21:54 | 26.05952 | -80.78225 | 1926 ft | 115 kts | 7° |
| 2026-04-21 21:55 | 26.06750 | -80.78260 | 1934 ft | 114 kts | 8° |
| 2026-04-21 21:55 | 26.07551 | -80.78297 | 1939 ft | 114 kts | 8° |
| 2026-04-21 21:55 | 26.08346 | -80.78331 | 1935 ft | 114 kts | 7° |
| 2026-04-21 21:55 | 26.09144 | -80.78366 | 1937 ft | 114 kts | 7° |
| 2026-04-21 21:56 | 26.09937 | -80.78402 | 1946 ft | 114 kts | 8° |
| 2026-04-21 21:56 | 26.10732 | -80.78433 | 1945 ft | 114 kts | 7° |
| 2026-04-21 21:56 | 26.11523 | -80.78466 | 1944 ft | 114 kts | 7° |
| 2026-04-21 21:56 | 26.12319 | -80.78501 | 1942 ft | 115 kts | 7° |
| 2026-04-21 21:57 | 26.13119 | -80.78536 | 1960 ft | 113 kts | 8° |
| 2026-04-21 21:57 | 26.13906 | -80.78568 | 1937 ft | 114 kts | 8° |
| 2026-04-21 21:57 | 26.14695 | -80.78604 | 1945 ft | 113 kts | 8° |
| 2026-04-21 21:57 | 26.15486 | -80.78634 | 1937 ft | 114 kts | 8° |
| 2026-04-21 21:58 | 26.16279 | -80.78667 | 1942 ft | 114 kts | 8° |
| 2026-04-21 21:58 | 26.17072 | -80.78701 | 1950 ft | 114 kts | 8° |
| 2026-04-21 21:58 | 26.17863 | -80.78736 | 1954 ft | 114 kts | 8° |
| 2026-04-21 21:58 | 26.18662 | -80.78769 | 1957 ft | 114 kts | 7° |
| 2026-04-21 21:59 | 26.19451 | -80.78802 | 1963 ft | 113 kts | 8° |
| 2026-04-21 21:59 | 26.20243 | -80.78834 | 1962 ft | 114 kts | 7° |
| 2026-04-21 21:59 | 26.21033 | -80.78868 | 1966 ft | 113 kts | 8° |
| 2026-04-21 21:59 | 26.21825 | -80.78901 | 1965 ft | 114 kts | 7° |
| 2026-04-21 22:00 | 26.22615 | -80.78935 | 1958 ft | 114 kts | 8° |
| 2026-04-21 22:00 | 26.23403 | -80.78969 | 1956 ft | 113 kts | 8° |
| 2026-04-21 22:00 | 26.24207 | -80.79086 | 1955 ft | 117 kts | 0° |
| 2026-04-21 22:00 | 26.25010 | -80.79255 | 1958 ft | 117 kts | 0° |
| 2026-04-21 22:01 | 26.25811 | -80.79420 | 1963 ft | 117 kts | 0° |
| 2026-04-21 22:01 | 26.26613 | -80.79588 | 1960 ft | 117 kts | 0° |
| 2026-04-21 22:01 | 26.27414 | -80.79755 | 1962 ft | 117 kts | 1° |
| 2026-04-21 22:01 | 26.28214 | -80.79920 | 1947 ft | 118 kts | 360° |
| 2026-04-21 22:02 | 26.29017 | -80.80091 | 1955 ft | 117 kts | 360° |
| 2026-04-21 22:02 | 26.29825 | -80.80259 | 1962 ft | 117 kts | 359° |
| 2026-04-21 22:02 | 26.30626 | -80.80430 | 1967 ft | 117 kts | 359° |
| 2026-04-21 22:02 | 26.31423 | -80.80601 | 1972 ft | 116 kts | 360° |
| 2026-04-21 22:03 | 26.32224 | -80.80771 | 1967 ft | 117 kts | 0° |
| 2026-04-21 22:03 | 26.33022 | -80.80939 | 1963 ft | 117 kts | 0° |
| 2026-04-21 22:03 | 26.33822 | -80.81108 | 1961 ft | 117 kts | 0° |
| 2026-04-21 22:03 | 26.34623 | -80.81281 | 1957 ft | 117 kts | 0° |
| 2026-04-21 22:04 | 26.35431 | -80.81450 | 1963 ft | 117 kts | 0° |
| 2026-04-21 22:04 | 26.36232 | -80.81621 | 1959 ft | 117 kts | 0° |
| 2026-04-21 22:04 | 26.37030 | -80.81791 | 1966 ft | 117 kts | 0° |
| 2026-04-21 22:04 | 26.37834 | -80.81959 | 1956 ft | 118 kts | 360° |
| 2026-04-21 22:05 | 26.38637 | -80.82130 | 1972 ft | 117 kts | 360° |
| 2026-04-21 22:05 | 26.39440 | -80.82300 | 1973 ft | 118 kts | 359° |
| 2026-04-21 22:05 | 26.40246 | -80.82471 | 1976 ft | 118 kts | 359° |
| 2026-04-21 22:05 | 26.41054 | -80.82644 | 1978 ft | 117 kts | 359° |
| 2026-04-21 22:06 | 26.41860 | -80.82816 | 1975 ft | 118 kts | 360° |
| 2026-04-21 22:06 | 26.42663 | -80.82988 | 1979 ft | 117 kts | 360° |
| 2026-04-21 22:06 | 26.43464 | -80.83157 | 1979 ft | 117 kts | 360° |
| 2026-04-21 22:06 | 26.44263 | -80.83328 | 1979 ft | 117 kts | 360° |
| 2026-04-21 22:07 | 26.45063 | -80.83499 | 1978 ft | 117 kts | 0° |
| 2026-04-21 22:07 | 26.45859 | -80.83667 | 1981 ft | 117 kts | 0° |
| 2026-04-21 22:07 | 26.46668 | -80.83837 | 1973 ft | 118 kts | 359° |
| 2026-04-21 22:07 | 26.47471 | -80.84010 | 1977 ft | 118 kts | 0° |
| 2026-04-21 22:08 | 26.48275 | -80.84182 | 1978 ft | 118 kts | 0° |
| 2026-04-21 22:08 | 26.49078 | -80.84351 | 1981 ft | 117 kts | 360° |
| 2026-04-21 22:08 | 26.49885 | -80.84523 | 1968 ft | 119 kts | 359° |
| 2026-04-21 22:08 | 26.50599 | -80.85072 | 1973 ft | 136 kts | 313° |
| 2026-04-21 22:09 | 26.50858 | -80.86117 | 1972 ft | 146 kts | 277° |
| 2026-04-21 22:09 | 26.50876 | -80.87260 | 1982 ft | 146 kts | 275° |
| 2026-04-21 22:09 | 26.50889 | -80.88390 | 1985 ft | 146 kts | 275° |
| 2026-04-21 22:09 | 26.50905 | -80.89523 | 1973 ft | 147 kts | 275° |
| 2026-04-21 22:10 | 26.50921 | -80.90655 | 1987 ft | 146 kts | 275° |
| 2026-04-21 22:10 | 26.50937 | -80.91788 | 1978 ft | 146 kts | 276° |
| 2026-04-21 22:10 | 26.50956 | -80.92918 | 1974 ft | 147 kts | 276° |
| 2026-04-21 22:10 | 26.50974 | -80.94050 | 1981 ft | 145 kts | 275° |
| 2026-04-21 22:11 | 26.50993 | -80.95184 | 1975 ft | 145 kts | 275° |
| 2026-04-21 22:11 | 26.51010 | -80.96312 | 1963 ft | 147 kts | 275° |
| 2026-04-21 22:11 | 26.51027 | -80.97445 | 1978 ft | 146 kts | 275° |
| 2026-04-21 22:11 | 26.51044 | -80.98576 | 1973 ft | 146 kts | 275° |
| 2026-04-21 22:12 | 26.51062 | -80.99705 | 1970 ft | 146 kts | 276° |
| 2026-04-21 22:12 | 26.51080 | -81.00836 | 1967 ft | 146 kts | 275° |
| 2026-04-21 22:12 | 26.51097 | -81.01968 | 1961 ft | 147 kts | 275° |
| 2026-04-21 22:12 | 26.51116 | -81.03113 | 1972 ft | 146 kts | 275° |
| 2026-04-21 22:13 | 26.51133 | -81.04246 | 1962 ft | 147 kts | 275° |
| 2026-04-21 22:13 | 26.51152 | -81.05381 | 1969 ft | 147 kts | 275° |
| 2026-04-21 22:13 | 26.51169 | -81.06515 | 1965 ft | 147 kts | 275° |
| 2026-04-21 22:13 | 26.51216 | -81.07644 | 1957 ft | 144 kts | 288° |
| 2026-04-21 22:14 | 26.51715 | -81.08529 | 1952 ft | 129 kts | 334° |
| 2026-04-21 22:14 | 26.52487 | -81.08977 | 1959 ft | 124 kts | 345° |
| 2026-04-21 22:14 | 26.53273 | -81.09387 | 1974 ft | 123 kts | 346° |
| 2026-04-21 22:14 | 26.54052 | -81.09793 | 1971 ft | 123 kts | 346° |
| 2026-04-21 22:15 | 26.54829 | -81.10191 | 1966 ft | 123 kts | 346° |
| 2026-04-21 22:15 | 26.55612 | -81.10594 | 1968 ft | 123 kts | 346° |
| 2026-04-21 22:15 | 26.56393 | -81.10990 | 1958 ft | 124 kts | 346° |
| 2026-04-21 22:15 | 26.57177 | -81.11390 | 1957 ft | 124 kts | 346° |
| 2026-04-21 22:16 | 26.57966 | -81.11790 | 1964 ft | 123 kts | 347° |
| 2026-04-21 22:16 | 26.58751 | -81.12187 | 1972 ft | 123 kts | 347° |
| 2026-04-21 22:16 | 26.59531 | -81.12581 | 1967 ft | 123 kts | 346° |
| 2026-04-21 22:16 | 26.60313 | -81.12979 | 1976 ft | 123 kts | 347° |
| 2026-04-21 22:17 | 26.61092 | -81.13371 | 1988 ft | 123 kts | 346° |
| 2026-04-21 22:17 | 26.61875 | -81.13766 | 1985 ft | 124 kts | 346° |
| 2026-04-21 22:17 | 26.62662 | -81.14166 | 1994 ft | 124 kts | 346° |
| 2026-04-21 22:17 | 26.63450 | -81.14564 | 1988 ft | 124 kts | 347° |
| 2026-04-21 22:18 | 26.64244 | -81.14968 | 1986 ft | 124 kts | 347° |
| 2026-04-21 22:18 | 26.65029 | -81.15365 | 1988 ft | 124 kts | 347° |
| 2026-04-21 22:18 | 26.65812 | -81.15757 | 1974 ft | 124 kts | 347° |
| 2026-04-21 22:18 | 26.66596 | -81.16153 | 1976 ft | 124 kts | 347° |
| 2026-04-21 22:19 | 26.67376 | -81.16549 | 1974 ft | 123 kts | 347° |
| 2026-04-21 22:19 | 26.68158 | -81.16943 | 1976 ft | 123 kts | 346° |
| 2026-04-21 22:19 | 26.68941 | -81.17316 | 1980 ft | 119 kts | 356° |
| 2026-04-21 22:19 | 26.69725 | -81.17294 | 1984 ft | 110 kts | 17° |
| 2026-04-21 22:20 | 26.70492 | -81.17195 | 1981 ft | 111 kts | 16° |
| 2026-04-21 22:20 | 26.71258 | -81.17098 | 1992 ft | 110 kts | 17° |
| 2026-04-21 22:20 | 26.72022 | -81.16994 | 1981 ft | 111 kts | 17° |
| 2026-04-21 22:20 | 26.72790 | -81.16889 | 1983 ft | 111 kts | 17° |
| 2026-04-21 22:21 | 26.73558 | -81.16781 | 1979 ft | 112 kts | 18° |
| 2026-04-21 22:21 | 26.74328 | -81.16671 | 1982 ft | 112 kts | 17° |
| 2026-04-21 22:21 | 26.75104 | -81.16561 | 1988 ft | 111 kts | 18° |
| 2026-04-21 22:21 | 26.75869 | -81.16450 | 1990 ft | 111 kts | 18° |
| 2026-04-21 22:22 | 26.76637 | -81.16339 | 1993 ft | 110 kts | 18° |
| 2026-04-21 22:22 | 26.77400 | -81.16228 | 1994 ft | 110 kts | 18° |
| 2026-04-21 22:22 | 26.78158 | -81.16117 | 1983 ft | 110 kts | 18° |
| 2026-04-21 22:22 | 26.78917 | -81.16003 | 1975 ft | 110 kts | 18° |
| 2026-04-21 22:23 | 26.79676 | -81.15893 | 1979 ft | 110 kts | 18° |
| 2026-04-21 22:23 | 26.80436 | -81.15780 | 1986 ft | 109 kts | 18° |
| 2026-04-21 22:23 | 26.81190 | -81.15671 | 1978 ft | 110 kts | 18° |
| 2026-04-21 22:23 | 26.81950 | -81.15557 | 1973 ft | 110 kts | 18° |
| 2026-04-21 22:24 | 26.82709 | -81.15446 | 1972 ft | 111 kts | 18° |
| 2026-04-21 22:24 | 26.83478 | -81.15332 | 1989 ft | 111 kts | 18° |
| 2026-04-21 22:24 | 26.84247 | -81.15218 | 1996 ft | 111 kts | 18° |
| 2026-04-21 22:24 | 26.85015 | -81.15105 | 1990 ft | 111 kts | 18° |
| 2026-04-21 22:25 | 26.85789 | -81.14990 | 1994 ft | 111 kts | 18° |
| 2026-04-21 22:25 | 26.86554 | -81.14876 | 1980 ft | 111 kts | 18° |
| 2026-04-21 22:25 | 26.87318 | -81.14766 | 1981 ft | 110 kts | 18° |
| 2026-04-21 22:25 | 26.88075 | -81.14653 | 1973 ft | 110 kts | 18° |
| 2026-04-21 22:26 | 26.88834 | -81.14542 | 1972 ft | 109 kts | 18° |
| 2026-04-21 22:26 | 26.89591 | -81.14429 | 1960 ft | 110 kts | 18° |
| 2026-04-21 22:26 | 26.90346 | -81.14317 | 1962 ft | 110 kts | 18° |
| 2026-04-21 22:26 | 26.91111 | -81.14201 | 1956 ft | 110 kts | 18° |
| 2026-04-21 22:27 | 26.91882 | -81.14089 | 1957 ft | 112 kts | 18° |
| 2026-04-21 22:27 | 26.92655 | -81.13974 | 1971 ft | 112 kts | 18° |
| 2026-04-21 22:27 | 26.93427 | -81.13861 | 1985 ft | 111 kts | 18° |
| 2026-04-21 22:27 | 26.94191 | -81.13748 | 1981 ft | 111 kts | 18° |
| 2026-04-21 22:28 | 26.94959 | -81.13635 | 1971 ft | 112 kts | 19° |
| 2026-04-21 22:28 | 26.95729 | -81.13519 | 1969 ft | 111 kts | 19° |
| 2026-04-21 22:28 | 26.96506 | -81.13404 | 1968 ft | 111 kts | 18° |
| 2026-04-21 22:28 | 26.97272 | -81.13290 | 1970 ft | 111 kts | 19° |
| 2026-04-21 22:29 | 26.98036 | -81.13177 | 1968 ft | 110 kts | 18° |
| 2026-04-21 22:29 | 26.98793 | -81.13064 | 1963 ft | 111 kts | 18° |
| 2026-04-21 22:29 | 26.99555 | -81.12950 | 1956 ft | 111 kts | 18° |
| 2026-04-21 22:29 | 27.00322 | -81.12837 | 1947 ft | 112 kts | 18° |
| 2026-04-21 22:30 | 27.01093 | -81.12722 | 1963 ft | 112 kts | 18° |
| 2026-04-21 22:30 | 27.01869 | -81.12612 | 1969 ft | 113 kts | 17° |
| 2026-04-21 22:30 | 27.02650 | -81.12934 | 1963 ft | 133 kts | 327° |
| 2026-04-21 22:30 | 27.03086 | -81.13891 | 1960 ft | 147 kts | 282° |
| 2026-04-21 22:31 | 27.02856 | -81.15003 | 1953 ft | 149 kts | 233° |
| 2026-04-21 22:31 | 27.02063 | -81.15615 | 1965 ft | 133 kts | 178° |
| 2026-04-21 22:31 | 27.01232 | -81.15451 | 1970 ft | 119 kts | 148° |
| 2026-04-21 22:31 | 27.00741 | -81.14845 | 1945 ft | 103 kts | 95° |
| 2026-04-21 22:32 | 27.01056 | -81.14187 | 1970 ft | 106 kts | 37° |
| 2026-04-21 22:32 | 27.01829 | -81.14304 | 1970 ft | 132 kts | 337° |
| 2026-04-21 22:32 | 27.02202 | -81.15279 | 1999 ft | 147 kts | 271° |
| 2026-04-21 22:32 | 27.02103 | -81.16419 | 1981 ft | 149 kts | 264° |
| 2026-04-21 22:33 | 27.01945 | -81.17564 | 1940 ft | 149 kts | 261° |
| 2026-04-21 22:33 | 27.01756 | -81.18703 | 1790 ft | 149 kts | 258° |
| 2026-04-21 22:33 | 27.01544 | -81.19837 | 1624 ft | 149 kts | 257° |
| 2026-04-21 22:33 | 27.01314 | -81.20973 | 1457 ft | 149 kts | 257° |
| 2026-04-21 22:34 | 27.01090 | -81.22102 | 1436 ft | 147 kts | 258° |
| 2026-04-21 22:34 | 27.00865 | -81.23224 | 1433 ft | 148 kts | 258° |
| 2026-04-21 22:34 | 27.00634 | -81.24340 | 1445 ft | 147 kts | 258° |
| 2026-04-21 22:34 | 27.00401 | -81.25451 | 1456 ft | 147 kts | 258° |
| 2026-04-21 22:35 | 27.00164 | -81.26567 | 1470 ft | 147 kts | 258° |
| 2026-04-21 22:35 | 26.99927 | -81.27682 | 1471 ft | 148 kts | 258° |
| 2026-04-21 22:35 | 26.99689 | -81.28807 | 1464 ft | 148 kts | 258° |
| 2026-04-21 22:35 | 26.99448 | -81.29921 | 1477 ft | 147 kts | 258° |
| 2026-04-21 22:36 | 26.98973 | -81.32143 | 1473 ft | 148 kts | 258° |
| 2026-04-21 22:36 | 26.98733 | -81.33262 | 1471 ft | 148 kts | 259° |
| 2026-04-21 22:36 | 26.98493 | -81.34385 | 1473 ft | 149 kts | 257° |
| 2026-04-21 22:37 | 26.98250 | -81.35510 | 1480 ft | 149 kts | 257° |
| 2026-04-21 22:37 | 26.98181 | -81.36663 | 1477 ft | 148 kts | 283° |
| 2026-04-21 22:37 | 26.98484 | -81.37717 | 1495 ft | 139 kts | 308° |
| 2026-04-21 22:37 | 26.99082 | -81.38513 | 1486 ft | 130 kts | 333° |
| 2026-04-21 22:38 | 26.99852 | -81.38949 | 1480 ft | 121 kts | 354° |
| 2026-04-21 22:38 | 27.00645 | -81.39263 | 1486 ft | 122 kts | 350° |
| 2026-04-21 22:38 | 27.01430 | -81.39627 | 1478 ft | 123 kts | 348° |
| 2026-04-21 22:38 | 27.02211 | -81.40022 | 1478 ft | 124 kts | 346° |
| 2026-04-21 22:39 | 27.02994 | -81.40453 | 1485 ft | 124 kts | 345° |
| 2026-04-21 22:39 | 27.03768 | -81.40897 | 1465 ft | 126 kts | 343° |
| 2026-04-21 22:39 | 27.04551 | -81.41363 | 1472 ft | 127 kts | 343° |
| 2026-04-21 22:39 | 27.05326 | -81.41835 | 1475 ft | 127 kts | 342° |
| 2026-04-21 22:40 | 27.06099 | -81.42315 | 1480 ft | 127 kts | 341° |
| 2026-04-21 22:40 | 27.06875 | -81.42826 | 1486 ft | 129 kts | 342° |
| 2026-04-21 22:40 | 27.07644 | -81.43315 | 1514 ft | 126 kts | 336° |
| 2026-04-21 22:40 | 27.08426 | -81.43817 | 1503 ft | 130 kts | 339° |
| 2026-04-21 22:41 | 27.09188 | -81.44316 | 1506 ft | 127 kts | 342° |
| 2026-04-21 22:41 | 27.09943 | -81.44796 | 1514 ft | 123 kts | 342° |
| 2026-04-21 22:41 | 27.10686 | -81.45270 | 1491 ft | 123 kts | 343° |
| 2026-04-21 22:41 | 27.11427 | -81.45743 | 1481 ft | 122 kts | 342° |
| 2026-04-21 22:42 | 27.12166 | -81.46221 | 1471 ft | 122 kts | 341° |
| 2026-04-21 22:42 | 27.12907 | -81.46697 | 1471 ft | 122 kts | 342° |
| 2026-04-21 22:42 | 27.13652 | -81.47179 | 1475 ft | 123 kts | 342° |
| 2026-04-21 22:42 | 27.14393 | -81.47658 | 1476 ft | 124 kts | 341° |
| 2026-04-21 22:43 | 27.15133 | -81.48139 | 1485 ft | 123 kts | 341° |
| 2026-04-21 22:43 | 27.15873 | -81.48616 | 1476 ft | 123 kts | 341° |
| 2026-04-21 22:43 | 27.16611 | -81.49098 | 1476 ft | 122 kts | 341° |
| 2026-04-21 22:43 | 27.17344 | -81.49576 | 1480 ft | 122 kts | 341° |
| 2026-04-21 22:44 | 27.18081 | -81.50054 | 1472 ft | 123 kts | 341° |
| 2026-04-21 22:44 | 27.18833 | -81.50541 | 1477 ft | 123 kts | 342° |
| 2026-04-21 22:44 | 27.19576 | -81.51023 | 1482 ft | 123 kts | 341° |
| 2026-04-21 22:44 | 27.20323 | -81.51510 | 1497 ft | 123 kts | 341° |
| 2026-04-21 22:45 | 27.21065 | -81.51993 | 1491 ft | 123 kts | 342° |
| 2026-04-21 22:45 | 27.21806 | -81.52476 | 1488 ft | 123 kts | 342° |
| 2026-04-21 22:45 | 27.22543 | -81.52958 | 1481 ft | 123 kts | 341° |
| 2026-04-21 22:45 | 27.23290 | -81.53440 | 1476 ft | 124 kts | 341° |
| 2026-04-21 22:46 | 27.24041 | -81.53928 | 1482 ft | 123 kts | 341° |
| 2026-04-21 22:46 | 27.24780 | -81.54413 | 1484 ft | 123 kts | 341° |
| 2026-04-21 22:46 | 27.25519 | -81.54893 | 1472 ft | 123 kts | 341° |
| 2026-04-21 22:46 | 27.26258 | -81.55375 | 1475 ft | 123 kts | 342° |
| 2026-04-21 22:47 | 27.26998 | -81.55856 | 1481 ft | 123 kts | 341° |
| 2026-04-21 22:47 | 27.27736 | -81.56338 | 1475 ft | 123 kts | 341° |
| 2026-04-21 22:47 | 27.28465 | -81.56851 | 1469 ft | 125 kts | 339° |
| 2026-04-21 22:47 | 27.29199 | -81.57369 | 1480 ft | 122 kts | 343° |
| 2026-04-21 22:48 | 27.29953 | -81.57844 | 1408 ft | 133 kts | 329° |
| 2026-04-21 22:48 | 27.30708 | -81.58332 | 1514 ft | 122 kts | 344° |
| 2026-04-21 22:48 | 27.31463 | -81.58750 | 1477 ft | 122 kts | 345° |
| 2026-04-21 22:48 | 27.32226 | -81.59147 | 1469 ft | 120 kts | 346° |
| 2026-04-21 22:49 | 27.32990 | -81.59529 | 1467 ft | 120 kts | 346° |
| 2026-04-21 22:49 | 27.33756 | -81.59909 | 1467 ft | 120 kts | 347° |
| 2026-04-21 22:49 | 27.34520 | -81.60318 | 1476 ft | 121 kts | 346° |
| 2026-04-21 22:49 | 27.35278 | -81.60728 | 1480 ft | 121 kts | 346° |
| 2026-04-21 22:50 | 27.36043 | -81.61142 | 1490 ft | 122 kts | 347° |
| 2026-04-21 22:50 | 27.36809 | -81.61552 | 1500 ft | 122 kts | 347° |
| 2026-04-21 22:50 | 27.37567 | -81.61988 | 1498 ft | 123 kts | 344° |
| 2026-04-21 22:50 | 27.38321 | -81.62424 | 1493 ft | 121 kts | 345° |
| 2026-04-21 22:51 | 27.39073 | -81.62861 | 1471 ft | 123 kts | 344° |
| 2026-04-21 22:51 | 27.39836 | -81.63301 | 1469 ft | 123 kts | 345° |
| 2026-04-21 22:51 | 27.40597 | -81.63735 | 1476 ft | 122 kts | 345° |
| 2026-04-21 22:51 | 27.41353 | -81.64166 | 1472 ft | 122 kts | 345° |
| 2026-04-21 22:52 | 27.42108 | -81.64595 | 1478 ft | 122 kts | 345° |
| 2026-04-21 22:52 | 27.42866 | -81.65028 | 1470 ft | 122 kts | 343° |
| 2026-04-21 22:52 | 27.43623 | -81.65461 | 1473 ft | 122 kts | 344° |
| 2026-04-21 22:52 | 27.44383 | -81.65888 | 1464 ft | 123 kts | 344° |
| 2026-04-21 22:53 | 27.45154 | -81.66317 | 1465 ft | 123 kts | 345° |
| 2026-04-21 22:53 | 27.45921 | -81.66740 | 1476 ft | 123 kts | 344° |
| 2026-04-21 22:53 | 27.46692 | -81.67169 | 1482 ft | 123 kts | 344° |
| 2026-04-21 22:53 | 27.47465 | -81.67593 | 1482 ft | 123 kts | 345° |
| 2026-04-21 22:54 | 27.48235 | -81.68019 | 1484 ft | 123 kts | 345° |
| 2026-04-21 22:54 | 27.49003 | -81.68445 | 1479 ft | 123 kts | 345° |
| 2026-04-21 22:54 | 27.49775 | -81.68863 | 1482 ft | 123 kts | 345° |
| 2026-04-21 22:54 | 27.50554 | -81.69289 | 1477 ft | 124 kts | 345° |
| 2026-04-21 22:55 | 27.51326 | -81.69710 | 1490 ft | 122 kts | 345° |
| 2026-04-21 22:55 | 27.52090 | -81.70133 | 1479 ft | 123 kts | 345° |
| 2026-04-21 22:55 | 27.52857 | -81.70560 | 1480 ft | 123 kts | 345° |
| 2026-04-21 22:55 | 27.53626 | -81.70989 | 1476 ft | 123 kts | 344° |
| 2026-04-21 22:56 | 27.54396 | -81.71435 | 1476 ft | 124 kts | 342° |
| 2026-04-21 22:56 | 27.55156 | -81.71891 | 1479 ft | 124 kts | 343° |
| 2026-04-21 22:56 | 27.55922 | -81.72356 | 1485 ft | 124 kts | 342° |
| 2026-04-21 22:56 | 27.56675 | -81.72815 | 1513 ft | 121 kts | 342° |
| 2026-04-21 22:57 | 27.57409 | -81.73267 | 1511 ft | 119 kts | 342° |
| 2026-04-21 22:57 | 27.58139 | -81.73711 | 1483 ft | 120 kts | 343° |
| 2026-04-21 22:57 | 27.58884 | -81.74092 | 1470 ft | 112 kts | 360° |
| 2026-04-21 22:57 | 27.59561 | -81.73895 | 1457 ft | 97 kts | 43° |
| 2026-04-21 22:58 | 27.59767 | -81.73230 | 1462 ft | 95 kts | 91° |
| 2026-04-21 22:58 | 27.59309 | -81.72674 | 1485 ft | 109 kts | 143° |
| 2026-04-21 22:58 | 27.58516 | -81.72813 | 1513 ft | 128 kts | 206° |
| 2026-04-21 22:58 | 27.58094 | -81.73690 | 1486 ft | 136 kts | 271° |
| 2026-04-21 22:59 | 27.58447 | -81.74608 | 1475 ft | 127 kts | 321° |
| 2026-04-21 22:59 | 27.59075 | -81.75277 | 1490 ft | 123 kts | 330° |
| 2026-04-21 22:59 | 27.59751 | -81.75854 | 1497 ft | 121 kts | 336° |
| 2026-04-21 22:59 | 27.60451 | -81.76379 | 1488 ft | 121 kts | 339° |
| 2026-04-21 23:00 | 27.61169 | -81.76884 | 1492 ft | 120 kts | 339° |
| 2026-04-21 23:00 | 27.61890 | -81.77352 | 1474 ft | 119 kts | 342° |
| 2026-04-21 23:00 | 27.62623 | -81.77779 | 1495 ft | 120 kts | 339° |
| 2026-04-21 23:00 | 27.63371 | -81.78195 | 1495 ft | 120 kts | 341° |
| 2026-04-21 23:01 | 27.64100 | -81.78662 | 1493 ft | 122 kts | 341° |
| 2026-04-21 23:01 | 27.64827 | -81.79165 | 1490 ft | 123 kts | 340° |
| 2026-04-21 23:01 | 27.65554 | -81.79681 | 1498 ft | 123 kts | 339° |
| 2026-04-21 23:01 | 27.66297 | -81.80172 | 1493 ft | 124 kts | 339° |
| 2026-04-21 23:02 | 27.67033 | -81.80679 | 1490 ft | 122 kts | 341° |
| 2026-04-21 23:02 | 27.67775 | -81.81146 | 1449 ft | 121 kts | 341° |
| 2026-04-21 23:02 | 27.68509 | -81.81600 | 1397 ft | 120 kts | 341° |
| 2026-04-21 23:02 | 27.69238 | -81.82058 | 1352 ft | 120 kts | 341° |
| 2026-04-21 23:03 | 27.69967 | -81.82510 | 1318 ft | 120 kts | 340° |
| 2026-04-21 23:03 | 27.70697 | -81.82958 | 1282 ft | 119 kts | 341° |
| 2026-04-21 23:03 | 27.71436 | -81.83409 | 1239 ft | 120 kts | 341° |
| 2026-04-21 23:03 | 27.72170 | -81.83867 | 1198 ft | 121 kts | 341° |
| 2026-04-21 23:04 | 27.72909 | -81.84318 | 1166 ft | 120 kts | 341° |
| 2026-04-21 23:04 | 27.73649 | -81.84770 | 1151 ft | 119 kts | 340° |
| 2026-04-21 23:04 | 27.74355 | -81.85196 | 1142 ft | 112 kts | 341° |
| 2026-04-21 23:04 | 27.75031 | -81.85618 | 1093 ft | 111 kts | 340° |
| 2026-04-21 23:05 | 27.75704 | -81.86032 | 1048 ft | 110 kts | 341° |
| 2026-04-21 23:05 | 27.76372 | -81.86457 | 1020 ft | 109 kts | 340° |
| 2026-04-21 23:05 | 27.77035 | -81.86869 | 974 ft | 109 kts | 341° |
| 2026-04-21 23:05 | 27.77708 | -81.87279 | 927 ft | 111 kts | 341° |
| 2026-04-21 23:06 | 27.78389 | -81.87686 | 894 ft | 111 kts | 341° |
| 2026-04-21 23:06 | 27.79069 | -81.88090 | 861 ft | 110 kts | 341° |
| 2026-04-21 23:06 | 27.79750 | -81.88498 | 825 ft | 110 kts | 340° |
| 2026-04-21 23:06 | 27.80430 | -81.88906 | 786 ft | 111 kts | 341° |
| 2026-04-21 23:07 | 27.81113 | -81.89312 | 755 ft | 110 kts | 341° |
| 2026-04-21 23:07 | 27.81787 | -81.89728 | 718 ft | 110 kts | 340° |
| 2026-04-21 23:07 | 27.82460 | -81.90122 | 688 ft | 108 kts | 341° |
| 2026-04-21 23:07 | 27.83133 | -81.90516 | 648 ft | 109 kts | 338° |
| 2026-04-21 23:08 | 27.83798 | -81.90950 | 602 ft | 112 kts | 335° |
| 2026-04-21 23:08 | 27.84473 | -81.91383 | 578 ft | 111 kts | 336° |
| 2026-04-21 23:08 | 27.85124 | -81.91844 | 549 ft | 111 kts | 336° |
| 2026-04-21 23:08 | 27.85757 | -81.92368 | 527 ft | 113 kts | 329° |
| 2026-04-21 23:09 | 27.86402 | -81.92873 | 529 ft | 113 kts | 336° |
| 2026-04-21 23:09 | 27.87066 | -81.93348 | 544 ft | 114 kts | 332° |
| 2026-04-21 23:09 | 27.87666 | -81.93827 | 601 ft | 98 kts | 333° |
| 2026-04-21 23:09 | 27.88185 | -81.94283 | 529 ft | 93 kts | 332° |
| 2026-04-21 23:10 | 27.88714 | -81.94688 | 505 ft | 90 kts | 343° |
| 2026-04-21 23:10 | 27.89264 | -81.95039 | 500 ft | 90 kts | 342° |
| 2026-04-21 23:10 | 27.89807 | -81.95380 | 530 ft | 87 kts | 342° |
| 2026-04-21 23:10 | 27.90314 | -81.95719 | 547 ft | 83 kts | 342° |
| 2026-04-21 23:11 | 27.90801 | -81.96039 | 552 ft | 79 kts | 342° |
| 2026-04-21 23:11 | 27.91273 | -81.96336 | 563 ft | 77 kts | 346° |
| 2026-04-21 23:11 | 27.91732 | -81.96612 | 505 ft | 72 kts | 350° |
| 2026-04-21 23:11 | 27.92188 | -81.96811 | 465 ft | 69 kts | 350° |
| 2026-04-21 23:12 | 27.92625 | -81.97057 | 474 ft | 73 kts | 339° |
| 2026-04-21 23:12 | 27.93026 | -81.97430 | 476 ft | 74 kts | 332° |
| 2026-04-21 23:12 | 27.93415 | -81.97807 | 479 ft | 73 kts | 332° |
| 2026-04-21 23:12 | 27.93806 | -81.98166 | 480 ft | 72 kts | 335° |
| 2026-04-21 23:13 | 27.94192 | -81.98522 | 482 ft | 71 kts | 335° |
| 2026-04-21 23:13 | 27.94593 | -81.98839 | 477 ft | 70 kts | 339° |
| 2026-04-21 23:13 | 27.94991 | -81.99158 | 474 ft | 70 kts | 339° |
| 2026-04-21 23:13 | 27.95389 | -81.99471 | 470 ft | 70 kts | 339° |
| 2026-04-21 23:14 | 27.95788 | -81.99777 | 472 ft | 69 kts | 339° |
| 2026-04-21 23:14 | 27.96199 | -82.00050 | 467 ft | 68 kts | 346° |
| 2026-04-21 23:14 | 27.96614 | -82.00281 | 458 ft | 66 kts | 350° |
| 2026-04-21 23:14 | 27.97019 | -82.00476 | 422 ft | 61 kts | 356° |
| 2026-04-21 23:15 | 27.97392 | -82.00647 | 326 ft | 53 kts | 3° |
| 2026-04-21 23:15 | 27.97744 | -82.00707 | 318 ft | 50 kts | 4° |
| 2026-04-21 23:15 | 27.97911 | -82.00876 | 329 ft | 48 kts | 280° |
| 2026-04-21 23:15 | 27.97913 | -82.01341 | 318 ft | 65 kts | 276° |
| 2026-04-21 23:16 | 27.97991 | -82.01817 | 226 ft | 59 kts | 238° |
| 2026-04-21 23:16 | 27.97981 | -82.01971 | 233 ft | 21 kts | 95° |
| 2026-04-21 23:16 | 27.97974 | -82.01966 | 169 ft | 3 kts | 96° |
| 2026-04-21 23:16 | 27.97975 | -82.01971 | 163 ft | 0 kts | 97° |
| 2026-04-21 23:17 | 27.97975 | -82.01970 | 163 ft | 1 kts | 79° |
| 2026-04-21 23:17 | 27.97985 | -82.01971 | 164 ft | 3 kts | 356° |
| 2026-04-21 23:17 | 27.97993 | -82.01974 | 163 ft | 0 kts | 345° |